Terminal Aerodrome Forecast
Issued by NWS Amarillo, TX

Home | Current Version | Previous Version | Text Only | Print | Product List | Glossary On
Versions: 1 2 3 4 5 6 7 8 9 10 11 12 13 14 15 16 17 18 19 20
000
FTUS44 KAMA 282325
TAFAMA
TAF
KAMA 282325Z 2900/2924 05014KT P6SM BKN005
      TEMPO 2900/2904 4SM -TSRA BR SCT005 OVC020CB
     FM290400 01018G28KT P6SM -SHRA OVC004
      TEMPO 2904/2908 1SM -SHRA BR OVC002
     FM290800 01018G28KT 1SM -SHRA OVC004
     FM292000 34019G29KT P6SM -SHRA OVC010=

USA.gov is the U.S. government's official web portal to all federal, state and local government web resources and services.